Latest Coastal Weather Observations for Whyalla

IDS60701

Issued at 3:11 am CST Saturday 23 May 2015 (issued every 10 minutes, with the page automatically refreshed every 10 minutes)

About coastal observations | Map of coastal stations | Coastal observations for SA | Marine services | Other Formats
Station Details ID: 018120 Name: WHYALLA AERO Lat: -33.05 Lon: 137.52 Height: 6.5 m
Data from the previous 72 hours. | See also: Recent months at Whyalla
Date/Time
CST
Temp

°C
Wind Pressure Rain
since 9am
mm
Weather Cloud Vis
km
Sea
Height
m
Swell
Dir
 
Speed
knots
Gust
knots
hPa Trend Height
m
Period
s
Dir
23/03:00am 11.0 SE 7 9 1029.7 - 0.0 - - 10 - - - -
23/02:30am 11.3 SE 8 12 1029.9 - 0.0 - - 10 - - - -
23/02:00am 11.5 SE 7 11 1030.2 - 0.0 - - 10 - - - -
23/01:30am 11.4 SE 6 8 1030.1 - 0.0 - - 10 - - - -
23/01:00am 11.3 SE 6 8 1030.2 - 0.0 - - 10 - - - -
23/12:30am 11.7 SE 6 8 1030.4 - 0.0 - - 10 - - - -
23/12:00am 11.2 SE 5 6 1030.2 - 0.0 - - 10 - - - -
 
Date/Time
CST
Temp

°C
Wind Pressure Rain
since 9am
mm
Weather Cloud Vis
km
Sea
Height
m
Swell
Dir
 
Speed
knots
Gust
knots
hPa Trend Height
m
Period
s
Dir
22/11:30pm 11.1 SE 6 7 1030.3 - 0.0 - - 10 - - - -
22/11:00pm 11.7 SE 5 6 1030.4 - 0.0 - - 10 - - - -
22/10:30pm 12.2 SE 6 8 1030.4 - 0.0 - - 10 - - - -
22/10:00pm 12.4 SE 7 9 1030.2 - 0.0 - - 10 - - - -
22/09:30pm 12.7 SE 7 10 1030.4 - 0.0 - Partly cloudy 10 - - - -
22/09:00pm 13.9 ESE 9 12 1030.4 - 0.0 - Mostly cloudy 10 - - - -
22/08:30pm 14.2 ESE 9 12 1030.5 - 0.0 - Cloudy 10 - - - -
22/08:00pm 14.2 SE 7 10 1030.3 - 0.0 - Cloudy 10 - - - -
22/07:30pm 14.0 ESE 7 10 1030.4 - 0.0 - Cloudy 10 - - - -
22/07:00pm 14.1 ESE 8 13 1030.5 - 0.0 - Cloudy 10 - - - -
22/06:30pm 13.6 SE 7 9 1030.3 - 0.0 - Cloudy 10 - - - -
22/06:00pm 14.0 SE 10 15 1030.1 - 0.0 - Cloudy 10 - - - -
22/05:30pm 14.0 S 7 9 1030.3 - 0.0 - Cloudy 10 - - - -
22/05:00pm 14.5 SSE 8 12 1030.2 - 0.0 - Partly cloudy 10 - - - -
22/04:30pm 14.2 S 10 12 1029.9 - 0.0 - - 10 - - - -
22/04:00pm 14.3 SSE 11 16 1029.7 - 0.0 - - 10 - - - -
22/03:30pm 14.4 SSE 11 15 1029.8 - 0.0 - - 10 - - - -
22/03:00pm 14.2 SSE 11 15 1029.9 - 0.0 - - 10 - - - -
22/02:30pm 14.4 SSE 11 16 1030.1 - 0.0 - Partly cloudy 10 - - - -
22/02:00pm 14.3 SSE 11 15 1030.2 - 0.0 - - 10 - - - -
22/01:30pm 14.0 SSE 9 13 1030.5 - 0.0 - Partly cloudy 10 - - - -
22/01:00pm 13.6 SSE 10 13 1030.6 - 0.0 - Partly cloudy 10 - - - -
22/12:30pm 14.1 SE 9 15 1030.9 - 0.0 - - 10 - - - -
22/12:00pm 14.6 SE 10 14 1031.2 - 0.0 - - 10 - - - -
22/11:30am 13.7 SE 10 14 1031.6 - 0.0 - Partly cloudy 10 - - - -
22/11:00am 13.9 SE 10 14 1031.8 - 0.0 - - 10 - - - -
22/10:30am 13.7 SE 9 12 1032.0 - 0.0 - - 10 - - - -
22/10:00am 13.8 ESE 8 11 1031.9 - 0.0 - - 10 - - - -
22/09:30am 13.4 ESE 8 10 1031.8 - 0.0 - Cloudy 10 - - - -
22/09:00am 13.3 ESE 7 9 1031.6 - 0.8 - Mostly cloudy 10 - - - -
22/08:51am 13.2 ESE 6 9 1031.5 - 0.8 - Partly cloudy 10 - - - -
22/08:30am 12.6 S 4 7 1031.2 - 0.8 - Partly cloudy 10 - - - -
22/08:00am 10.9 SW 4 6 1030.8 - 0.8 - Cloudy 10 - - - -
22/07:30am 9.3 SW 3 5 1030.6 - 0.8 - Partly cloudy 10 - - - -
22/07:13am 8.7 WSW 6 6 1030.4 - 0.8 - Partly cloudy 10 - - - -
22/07:00am 8.4 WSW 6 7 1030.3 - 0.8 - Partly cloudy 10 - - - -
22/06:30am 8.9 CALM 0 2 1029.9 - 0.8 - Partly cloudy 10 - - - -
22/06:06am 9.5 CALM 0 0 1029.5 - 0.8 - Partly cloudy 10 - - - -
22/06:00am 9.4 CALM 0 0 1029.4 - 0.8 - Cloudy 10 - - - -
22/05:53am 9.5 CALM 0 0 1029.5 - 0.8 - Partly cloudy 10 - - - -
22/05:30am 9.5 SW 4 6 1029.2 - 0.8 - Partly cloudy 10 - - - -
22/05:00am 9.1 WSW 5 7 1029.1 - 0.8 - Partly cloudy 10 - - - -
22/04:30am 9.2 WSW 5 7 1029.0 - 0.8 - Cloudy 10 - - - -
22/04:00am 9.7 WSW 5 7 1028.9 - 0.8 - Cloudy 10 - - - -
22/03:30am 9.6 SW 7 8 1029.0 - 0.8 - Partly cloudy 10 - - - -
22/03:00am 9.1 SSW 6 7 1029.2 - 0.8 - Mostly clear 10 - - - -
22/02:30am 9.2 SSW 4 7 1029.3 - 0.8 - Partly cloudy 10 - - - -
22/02:00am 9.5 WSW 3 5 1029.6 - 0.8 - Partly cloudy 10 - - - -
22/01:30am 9.6 WSW 6 8 1029.6 - 0.8 - Partly cloudy 10 - - - -
22/01:00am 9.6 WSW 4 5 1029.7 - 0.8 - Partly cloudy 10 - - - -
22/12:30am 10.0 SW 6 7 1029.7 - 0.8 - Partly cloudy 10 - - - -
22/12:00am 10.3 WSW 5 7 1029.7 - 0.8 - Cloudy 10 - - - -
 
Date/Time
CST
Temp

°C
Wind Pressure Rain
since 9am
mm
Weather Cloud Vis
km
Sea
Height
m
Swell
Dir
 
Speed
knots
Gust
knots
hPa Trend Height
m
Period
s
Dir
21/11:30pm 10.2 WSW 5 8 1029.6 - 0.8 - Partly cloudy 10 - - - -
21/11:00pm 10.5 WSW 6 7 1029.8 - 0.8 - Partly cloudy 10 - - - -
21/10:30pm 10.9 SW 7 9 1029.9 - 0.8 - Partly cloudy 10 - - - -
21/10:00pm 11.2 SW 8 14 1029.8 - 0.8 - Partly cloudy 10 - - - -
21/09:30pm 11.1 SW 9 12 1029.7 - 0.8 - Partly cloudy 10 - - - -
21/09:00pm 11.7 SW 7 10 1029.7 - 0.8 - Cloudy 10 - - - -
21/08:30pm 12.1 SSW 5 7 1029.5 - 0.8 - Partly cloudy 10 - - - -
21/08:00pm 12.4 SW 7 9 1029.3 - 0.8 - Partly cloudy 10 - - - -
21/07:30pm 12.3 SW 7 10 1029.3 - 0.8 - Partly cloudy 10 - - - -
21/07:00pm 12.7 SSW 8 10 1029.0 - 0.8 - Partly cloudy 10 - - - -
21/06:30pm 12.5 SSW 7 9 1028.8 - 0.8 - Partly cloudy 10 - - - -
21/06:00pm 12.8 S 8 12 1028.5 - 0.8 - Cloudy 10 - - - -
21/05:30pm 13.1 SSW 10 13 1028.3 - 0.8 - Partly cloudy 10 - - - -
21/05:00pm 13.3 SSW 12 16 1028.0 - 0.8 - Partly cloudy 10 - - - -
21/04:30pm 14.0 SSW 11 16 1027.9 - 0.8 - Partly cloudy 10 - - - -
21/04:00pm 14.1 S 10 15 1027.7 - 0.8 - Partly cloudy 10 - - - -
21/03:30pm 13.8 S 10 14 1027.8 - 0.8 - Partly cloudy 10 - - - -
21/03:00pm 14.0 SSW 12 17 1027.7 - 0.8 - Mostly cloudy 10 - - - -
21/02:30pm 13.8 S 10 14 1027.5 - 0.8 - - 10 - - - -
21/02:00pm 14.0 SSE 9 11 1027.5 - 0.8 - Partly cloudy 10 - - - -
21/01:30pm 13.5 SSE 9 11 1027.7 - 0.8 - Partly cloudy 10 - - - -
21/01:00pm 13.3 SSE 9 12 1027.8 - 0.8 - Partly cloudy 10 - - - -
21/12:30pm 13.5 SSE 11 14 1028.0 - 0.8 - Partly cloudy 10 - - - -
21/12:00pm 14.1 SSE 9 13 1028.1 - 0.8 - Mostly cloudy 10 - - - -
21/11:30am 12.6 SSE 8 13 1028.6 - 0.8 - Partly cloudy 10 - - - -
21/11:00am 12.8 SE 6 9 1028.6 - 0.8 - Partly cloudy 10 - - - -
21/10:30am 13.1 SE 8 12 1028.5 - 0.8 - Partly cloudy 10 - - - -
21/10:00am 12.6 SE 7 11 1028.3 - 0.8 - Partly cloudy 10 - - - -
21/09:34am 11.2 SW 7 8 1028.0 - 0.8 - Partly cloudy 10 - - - -
21/09:30am 11.1 SSW 7 9 1028.0 - 0.8 - Partly cloudy 10 - - - -
21/09:15am 10.5 SW 8 11 1028.0 - 0.4 - Partly cloudy 5 - - - -
21/09:00am 10.5 WSW 8 10 1027.9 - 4.0 - Cloudy 10 - - - -
21/08:30am 11.4 SSE 8 11 1027.5 - 4.0 - Partly cloudy 10 - - - -
21/08:00am 11.1 SSE 11 15 1027.0 - 4.0 - Partly cloudy 10 - - - -
21/07:59am 10.9 SSE 11 15 1027.0 - 4.0 - Partly cloudy 10 - - - -
21/07:30am 10.6 S 10 13 1026.5 - 4.0 - Partly cloudy 10 - - - -
21/07:20am 9.1 SW 9 11 1026.4 - 4.0 - Partly cloudy 10 - - - -
21/07:00am 8.7 SW 8 11 1026.4 - 4.0 - Partly cloudy 10 - - - -
21/06:30am 8.7 SW 9 12 1025.8 - 4.0 - Partly cloudy 10 - - - -
21/06:11am 8.8 SW 9 12 1025.7 - 4.0 - Partly cloudy 10 - - - -
21/06:00am 8.5 SW 8 11 1025.6 - 3.8 Rain Cloudy 5 - - - -
21/05:55am 8.4 SW 6 11 1025.7 - 3.8 - Partly cloudy 5 - - - -
21/05:30am 8.5 SW 7 9 1025.3 - 3.6 - Partly cloudy 10 - - - -
21/05:00am 8.9 SW 10 15 1025.1 - 3.4 - Partly cloudy 10 - - - -
21/04:30am 8.5 SW 6 8 1025.0 - 3.4 - Partly cloudy 10 - - - -
21/04:00am 8.5 SW 7 9 1024.7 - 3.4 - Partly cloudy 10 - - - -
21/03:30am 8.1 WSW 7 9 1024.7 - 3.4 - Partly cloudy 10 - - - -
21/03:00am 8.5 WSW 6 9 1024.7 - 3.4 - Cloudy 10 - - - -
21/02:30am 8.8 WSW 7 10 1024.6 - 3.4 - Partly cloudy 10 - - - -
21/02:00am 8.5 WSW 7 8 1024.6 - 3.4 - - 10 - - - -
21/01:30am 9.0 WSW 7 10 1024.5 - 3.4 - Partly cloudy 10 - - - -
21/01:00am 9.4 SW 8 11 1024.4 - 3.4 - Partly cloudy 10 - - - -
21/12:30am 9.2 WSW 7 9 1024.4 - 3.4 - Partly cloudy 10 - - - -
21/12:00am 9.3 WSW 7 9 1024.2 - 3.4 Recent precip. Mostly cloudy 10 - - - -
 
Date/Time
CST
Temp

°C
Wind Pressure Rain
since 9am
mm
Weather Cloud Vis
km
Sea
Height
m
Swell
Dir
 
Speed
knots
Gust
knots
hPa Trend Height
m
Period
s
Dir
20/11:30pm 9.5 WSW 8 10 1024.2 - 3.4 - Partly cloudy 10 - - - -
20/11:00pm 10.0 WSW 7 9 1024.1 - 3.2 - Partly cloudy 10 - - - -
20/10:40pm 10.1 SW 9 11 1024.0 - 3.2 - Partly cloudy 10 - - - -
20/10:30pm 10.0 SW 9 13 1024.1 - 3.0 - Partly cloudy 5 - - - -
20/10:22pm 9.9 SW 9 11 1024.1 - 2.6 - Partly cloudy 5 - - - -
20/10:00pm 10.1 SW 11 14 1024.0 - 1.8 - Partly cloudy 6 - - - -
20/09:30pm 10.1 SW 9 12 1023.9 - 1.8 - Partly cloudy 10 - - - -
20/09:00pm 9.8 SSW 4 6 1023.7 - 1.8 - Cloudy 10 - - - -
20/08:30pm 10.1 SW 9 11 1023.3 - 1.8 - - 10 - - - -
20/08:00pm 10.2 SW 8 10 1023.1 - 1.8 - - 10 - - - -
20/07:30pm 10.6 WSW 8 10 1022.9 - 1.8 - Partly cloudy 10 - - - -
20/07:00pm 10.6 WSW 7 8 1022.9 - 1.8 - Cloudy 10 - - - -
20/06:30pm 10.1 W 6 7 1022.6 - 1.8 - Partly cloudy 10 - - - -
20/06:10pm 10.1 W 8 10 1022.4 - 1.6 - Partly cloudy 10 - - - -
20/06:00pm 10.3 WSW 9 13 1022.4 - 1.4 Rain Cloudy 5 - - - -
20/05:50pm 10.8 SSW 11 14 1022.3 - 0.6 - Partly cloudy 5 - - - -
20/05:30pm 10.8 SSW 10 15 1021.8 - 0.2 - Partly cloudy 10 - - - -
20/05:00pm 13.0 SSW 13 18 1021.3 - 0.0 - Partly cloudy 10 - - - -
20/04:30pm 13.2 SSW 14 17 1020.7 - 0.0 - Cloudy 10 - - - -
20/04:00pm 13.3 SSW 14 20 1020.6 - 0.0 - Cloudy 10 - - - -
20/03:30pm 14.4 SSW 17 24 1020.3 - 0.0 - Partly cloudy 10 - - - -
20/03:00pm 14.1 S 16 21 1019.8 - 0.0 - - 10 - - - -
20/02:30pm 14.4 S 18 23 1019.8 - 0.0 - - 10 - - - -
20/02:00pm 14.0 S 15 20 1019.6 - 0.0 - - 10 - - - -
20/01:30pm 14.0 S 14 19 1019.5 - 0.0 - Partly cloudy 10 - - - -
20/01:00pm 14.5 S 13 17 1019.7 - 0.0 - Partly cloudy 10 - - - -
20/12:30pm 14.0 S 10 15 1020.0 - 0.0 - Partly cloudy 10 - - - -
20/12:00pm 14.0 SSE 9 12 1020.1 - 0.0 - Partly cloudy 10 - - - -
20/11:30am 14.0 SSE 9 14 1020.5 - 0.0 - Partly cloudy 10 - - - -
20/11:00am 14.7 S 11 17 1020.5 - 0.0 - Partly cloudy 10 - - - -
20/10:30am 15.1 S 12 16 1020.4 - 0.0 - Partly cloudy 10 - - - -
20/10:00am 14.6 SSW 12 16 1020.4 - 0.0 - Partly cloudy 10 - - - -
20/09:30am 14.4 SSW 12 15 1020.1 - 0.0 - - 10 - - - -
20/09:00am 13.2 SW 9 13 1019.7 - 0.2 - - 10 - - - -
20/08:30am 12.1 SW 8 11 1019.5 - 0.2 - Partly cloudy 10 - - - -
20/08:00am 11.7 WSW 7 11 1019.0 - 0.2 - Cloudy 10 - - - -
20/07:30am 10.3 WSW 6 8 1018.5 - 0.2 - Cloudy 10 - - - -
20/07:00am 10.6 SW 8 10 1018.0 - 0.2 - Partly cloudy 10 - - - -
20/06:30am 10.5 W 5 8 1017.7 - 0.2 - - 10 - - - -
20/06:00am 10.9 WSW 6 9 1017.0 - 0.2 - - 10 - - - -
20/05:30am 11.0 WSW 6 9 1016.6 - 0.2 - Partly cloudy 10 - - - -
20/05:00am 11.3 SW 8 11 1016.2 - 0.2 - Partly cloudy 10 - - - -
20/04:30am 11.3 WSW 7 9 1015.9 - 0.2 - - 8 - - - -
20/04:00am 10.8 SW 6 8 1015.5 - 0.2 - - 10 - - - -
20/03:30am 11.4 W 5 6 1015.5 - 0.2 - - 10 - - - -

Other Formats:

Comma delimited format used in spreadsheet applications
http://www.bom.gov.au/fwo/IDS60701/IDS60701.95664.axf

JavaScript Object Notation format (JSON) in row-major order
http://www.bom.gov.au/fwo/IDS60701/IDS60701.95664.json